Airport ID:KMIO
Update Time (UTC):01/10/2022 00:40
Wind Speed (Knots):3
Wind Direction (Magnetic):90
Temperature (°C):20
Dew Point (°C):1
Humidity (%):29
Altimeter (inHg):30.03
Density Altitude (Feet):
Visibility:10+
Clouds (Hundreds of feet):\\\\
Present Weather:
METAR:METAR KMIO 010035Z AUTO 09003KT 10SM 21/01 A3003 RMK AO2

The data displayed is for advisory purposes only and is not to be used for flight planning or operations.